createdAt,value
2018-12-26T00:14:24.059Z,98.25
2018-12-26T00:16:52.731Z,98.39
2018-12-26T00:19:21.434Z,98.17
2018-12-26T00:27:20.819Z,97.73
2018-12-26T00:30:08.841Z,97.88
2018-12-26T00:32:38.911Z,97.67
2018-12-26T00:46:46.195Z,98.53
2018-12-26T00:49:24.405Z,98.52
2018-12-26T00:56:30.597Z,98.32
2018-12-26T00:58:59.856Z,98.13
2018-12-26T01:01:28.852Z,98.40
2018-12-26T01:03:57.863Z,98.16
2018-12-26T01:06:27.752Z,98.18
2018-12-26T01:08:56.653Z,98.45
2018-12-26T01:11:27.827Z,98.61
2018-12-26T01:13:56.889Z,98.81
2018-12-26T01:19:02.867Z,98.90
2018-12-26T01:21:32.156Z,98.93
2018-12-26T01:24:00.794Z,98.82
2018-12-26T01:26:29.476Z,98.88
2018-12-26T01:28:58.134Z,98.75
2018-12-26T01:31:26.811Z,98.80
2018-12-26T01:33:55.430Z,98.73
2018-12-26T01:36:24.078Z,98.78
2018-12-26T01:38:52.736Z,98.80
2018-12-26T01:41:21.426Z,98.78
2018-12-26T01:43:50.048Z,98.73
2018-12-26T01:46:18.720Z,98.75
2018-12-26T01:48:47.361Z,99.10
2018-12-26T01:51:16.089Z,99.21
2018-12-26T01:53:44.769Z,99.01
2018-12-26T01:56:13.558Z,99.29
2018-12-26T01:58:42.190Z,99.47
2018-12-26T02:01:10.869Z,99.88
2018-12-26T02:03:39.509Z,100.00
2018-12-26T02:06:08.161Z,100.00
2018-12-26T02:08:36.856Z,100.00
2018-12-26T02:11:05.536Z,100.00
2018-12-26T02:13:34.242Z,100.00
2018-12-26T02:16:02.912Z,100.00
2018-12-26T02:18:31.543Z,99.95
2018-12-26T02:21:00.511Z,99.56
2018-12-26T02:23:29.243Z,99.60
2018-12-26T02:25:57.918Z,99.51
2018-12-26T02:28:26.577Z,99.40
2018-12-26T02:30:55.258Z,99.33
2018-12-26T02:33:23.883Z,99.21
2018-12-26T02:35:52.527Z,99.09
2018-12-26T02:38:21.170Z,98.93
2018-12-26T02:40:49.904Z,98.89
2018-12-26T02:43:18.548Z,98.28
2018-12-26T02:45:47.206Z,98.11
2018-12-26T02:48:15.937Z,98.37
2018-12-26T02:50:44.551Z,98.49
2018-12-26T02:53:13.198Z,98.86
2018-12-26T02:55:41.954Z,99.61
2018-12-26T02:58:10.642Z,99.69
2018-12-26T03:00:39.292Z,99.75
2018-12-26T03:03:07.908Z,99.74
2018-12-26T03:05:36.536Z,99.77
2018-12-26T03:08:05.289Z,99.73
2018-12-26T03:10:33.953Z,99.51
2018-12-26T03:13:02.582Z,99.37
2018-12-26T03:15:31.241Z,99.55
2018-12-26T03:17:59.922Z,99.63
2018-12-26T03:20:28.632Z,99.36
2018-12-26T03:22:57.351Z,99.28
2018-12-26T03:25:25.999Z,99.27
2018-12-26T03:27:54.671Z,99.47
2018-12-26T03:30:23.350Z,99.47
2018-12-26T03:32:52.004Z,99.20
2018-12-26T03:35:20.805Z,99.21
2018-12-26T03:37:49.507Z,99.44
2018-12-26T03:40:18.264Z,99.61
2018-12-26T03:42:47.009Z,99.84
2018-12-26T03:45:55.467Z,100.00
2018-12-26T03:48:24.180Z,100.00
2018-12-26T03:50:53.047Z,100.00
2018-12-26T03:53:21.833Z,100.00
2018-12-26T03:55:50.498Z,99.98
2018-12-26T03:58:19.203Z,99.77
2018-12-26T04:00:47.947Z,99.78
2018-12-26T04:03:16.656Z,99.90
2018-12-26T04:05:45.409Z,100.00
2018-12-26T04:08:14.141Z,100.00
2018-12-26T04:10:42.907Z,100.00
2018-12-26T04:13:11.615Z,100.00
2018-12-26T04:15:40.327Z,100.00
2018-12-26T04:18:09.077Z,100.00
2018-12-26T04:20:37.724Z,100.00
2018-12-26T04:23:06.471Z,100.00
2018-12-26T04:25:35.275Z,100.00
2018-12-26T04:28:03.950Z,100.00
2018-12-26T04:30:32.615Z,100.00
2018-12-26T04:33:01.270Z,100.00
2018-12-26T04:35:29.910Z,100.00
2018-12-26T04:37:58.574Z,100.00
2018-12-26T04:40:27.234Z,100.00
2018-12-26T04:42:55.890Z,100.00
2018-12-26T04:45:24.547Z,100.00
2018-12-26T04:47:53.278Z,100.00
2018-12-26T04:50:21.887Z,100.00
2018-12-26T04:52:50.544Z,100.00
2018-12-26T04:55:19.258Z,100.00
2018-12-26T04:57:47.925Z,100.00
2018-12-26T05:00:16.586Z,100.00
2018-12-26T05:02:45.321Z,100.00
2018-12-26T05:05:14.004Z,100.00
2018-12-26T05:07:42.685Z,100.00
2018-12-26T05:10:11.325Z,100.00
2018-12-26T05:12:39.959Z,100.00
2018-12-26T05:15:08.787Z,100.00
2018-12-26T05:17:37.537Z,100.00
2018-12-26T05:20:06.361Z,100.00
2018-12-26T05:22:35.025Z,100.00
2018-12-26T05:25:03.794Z,100.00
2018-12-26T05:27:34.307Z,100.00
2018-12-26T05:30:02.882Z,100.00
2018-12-26T05:32:31.638Z,100.00
2018-12-26T05:35:00.350Z,100.00
2018-12-26T05:37:29.122Z,100.00
2018-12-26T05:39:57.748Z,100.00
2018-12-26T05:42:26.441Z,100.00
2018-12-26T05:44:55.113Z,100.00
2018-12-26T05:47:23.782Z,100.00
2018-12-26T05:49:52.409Z,100.00
2018-12-26T05:52:21.103Z,100.00
2018-12-26T05:54:49.791Z,100.00
2018-12-26T05:57:18.478Z,100.00
2018-12-26T05:59:47.151Z,100.00
2018-12-26T06:02:15.825Z,100.00
2018-12-26T06:04:44.541Z,100.00
2018-12-26T06:07:13.249Z,100.00
2018-12-26T06:09:41.926Z,100.00
2018-12-26T06:12:11.543Z,100.00
2018-12-26T06:14:40.966Z,100.00
2018-12-26T06:17:09.645Z,100.00
2018-12-26T06:19:38.325Z,100.00
2018-12-26T06:22:07.020Z,100.00
2018-12-26T06:24:35.691Z,100.00
2018-12-26T06:27:04.408Z,100.00
2018-12-26T06:29:33.095Z,100.00
2018-12-26T06:32:01.735Z,100.00
2018-12-26T06:34:30.409Z,100.00
2018-12-26T06:36:59.086Z,100.00
2018-12-26T06:39:27.751Z,100.00
2018-12-26T06:41:56.428Z,100.00
2018-12-26T06:44:25.084Z,100.00
2018-12-26T06:46:53.848Z,100.00
2018-12-26T06:49:22.632Z,100.00
2018-12-26T06:51:51.325Z,100.00
2018-12-26T06:54:20.030Z,100.00
2018-12-26T06:56:48.767Z,100.00
2018-12-26T06:59:17.450Z,100.00
2018-12-26T07:01:46.072Z,100.00
2018-12-26T07:04:14.755Z,100.00
2018-12-26T07:06:43.399Z,100.00
2018-12-26T07:09:12.091Z,100.00
2018-12-26T07:11:40.737Z,100.00
2018-12-26T07:14:28.696Z,100.00
2018-12-26T07:16:57.395Z,100.00
2018-12-26T07:19:26.067Z,100.00
2018-12-26T07:21:54.721Z,100.00
2018-12-26T07:24:23.490Z,100.00
2018-12-26T07:26:52.156Z,100.00
2018-12-26T07:29:20.883Z,100.00
2018-12-26T07:31:49.511Z,100.00
2018-12-26T07:34:18.287Z,100.00
2018-12-26T07:36:46.954Z,100.00
2018-12-26T07:39:15.716Z,100.00
2018-12-26T07:41:44.406Z,100.00
2018-12-26T07:44:13.073Z,100.00
2018-12-26T07:46:41.751Z,100.00
2018-12-26T07:49:10.436Z,100.00
2018-12-26T07:51:39.104Z,100.00
2018-12-26T07:54:07.802Z,100.00
2018-12-26T07:56:36.425Z,100.00
2018-12-26T07:59:05.194Z,100.00
2018-12-26T08:01:33.849Z,100.00
2018-12-26T08:04:02.485Z,100.00
2018-12-26T08:06:31.227Z,100.00
2018-12-26T08:08:59.872Z,100.00
2018-12-26T08:11:28.513Z,100.00
2018-12-26T08:13:57.272Z,100.00
2018-12-26T08:16:26.057Z,100.00
2018-12-26T08:18:54.859Z,100.00
2018-12-26T08:21:23.666Z,100.00
2018-12-26T08:23:52.463Z,100.00
2018-12-26T08:26:21.107Z,100.00
2018-12-26T08:28:49.847Z,100.00
2018-12-26T08:31:18.517Z,100.00
2018-12-26T08:33:47.166Z,100.00
2018-12-26T08:36:15.804Z,100.00
2018-12-26T08:38:44.537Z,100.00
2018-12-26T08:41:13.293Z,100.00
2018-12-26T08:43:41.937Z,100.00
2018-12-26T08:46:10.641Z,100.00
2018-12-26T08:48:39.329Z,100.00
2018-12-26T08:51:07.985Z,100.00
2018-12-26T08:53:36.655Z,100.00
2018-12-26T08:56:24.392Z,100.00
2018-12-26T08:58:53.410Z,100.00
2018-12-26T09:01:23.628Z,100.00
2018-12-26T09:03:52.259Z,100.00
2018-12-26T09:06:20.918Z,100.00
2018-12-26T09:08:49.557Z,100.00
2018-12-26T09:11:18.218Z,100.00
2018-12-26T09:13:46.870Z,100.00
2018-12-26T09:16:15.565Z,100.00
2018-12-26T09:18:44.193Z,100.00
2018-12-26T09:21:12.950Z,100.00
2018-12-26T09:23:41.688Z,100.00
2018-12-26T09:26:12.020Z,100.00
2018-12-26T09:28:43.886Z,100.00
2018-12-26T09:31:11.209Z,100.00
2018-12-26T09:33:39.905Z,100.00
2018-12-26T10:10:01.722Z,100.00
2018-12-26T10:12:30.827Z,100.00
2018-12-26T10:15:07.668Z,100.00
2018-12-26T10:18:00.413Z,100.00
2018-12-26T10:20:32.586Z,100.00
2018-12-26T10:30:31.024Z,100.00
2018-12-26T10:35:15.060Z,100.00
2018-12-26T10:40:33.570Z,100.00
2018-12-26T10:43:02.539Z,100.00
2018-12-26T10:50:44.405Z,100.00
2018-12-26T10:53:13.975Z,100.00
2018-12-26T10:55:49.878Z,100.00
2018-12-26T11:16:58.149Z,100.00
2018-12-26T11:20:41.224Z,100.00
2018-12-26T12:19:28.919Z,100.00
2018-12-26T12:39:49.046Z,100.00
2018-12-26T12:42:20.121Z,100.00
2018-12-26T12:48:08.945Z,100.00
2018-12-26T13:33:40.749Z,100.00
2018-12-26T13:51:00.697Z,100.00
2018-12-26T13:59:43.112Z,100.00
2018-12-26T14:02:11.907Z,100.00
2018-12-26T14:04:40.722Z,100.00
2018-12-26T14:07:09.514Z,100.00
2018-12-26T14:09:38.336Z,100.00
2018-12-26T14:12:07.141Z,100.00
2018-12-26T14:14:55.145Z,100.00
2018-12-26T14:17:26.421Z,100.00
2018-12-26T14:26:54.744Z,100.00
2018-12-26T14:29:23.446Z,100.00
2018-12-26T14:55:15.746Z,100.00
2018-12-26T14:57:59.749Z,100.00
2018-12-26T15:35:24.174Z,100.00
2018-12-26T15:38:00.105Z,100.00
2018-12-26T15:41:16.538Z,100.00
2018-12-26T15:43:46.709Z,100.00
2018-12-26T15:46:15.343Z,100.00
2018-12-26T15:48:45.293Z,100.00
2018-12-26T15:51:15.677Z,100.00
2018-12-26T15:54:12.689Z,100.00
2018-12-26T16:03:25.951Z,100.00
2018-12-26T16:06:06.853Z,100.00
2018-12-26T16:07:04.277Z,100.00
2018-12-26T16:09:17.298Z,100.00
2018-12-26T16:12:07.417Z,100.00
2018-12-26T16:21:53.089Z,100.00
2018-12-26T16:24:14.011Z,100.00
2018-12-26T16:27:17.282Z,100.00
2018-12-26T16:30:05.250Z,100.00
2018-12-26T16:35:45.450Z,100.00
2018-12-26T16:39:22.671Z,100.00
2018-12-26T16:41:51.295Z,100.00
2018-12-26T16:44:27.668Z,100.00
2018-12-26T16:47:03.729Z,100.00
2018-12-26T16:49:37.838Z,100.00
2018-12-26T16:52:11.163Z,100.00
2018-12-26T17:09:04.246Z,100.00
2018-12-26T17:19:19.945Z,100.00
2018-12-26T17:36:52.252Z,100.00
2018-12-26T17:39:20.913Z,100.00
2018-12-26T17:41:50.887Z,100.00
2018-12-26T17:44:19.562Z,100.00
2018-12-26T17:46:48.243Z,100.00
2018-12-26T17:49:16.951Z,100.00
2018-12-26T17:51:45.626Z,100.00
2018-12-26T17:54:22.547Z,100.00
2018-12-26T17:56:58.056Z,100.00
2018-12-26T18:00:06.072Z,100.00
2018-12-26T18:03:14.085Z,100.00
2018-12-26T18:05:53.834Z,100.00
2018-12-26T18:09:16.218Z,100.00
2018-12-26T18:12:11.922Z,100.00
2018-12-26T18:16:19.249Z,100.00
2018-12-26T18:21:45.381Z,100.00
2018-12-26T23:47:55.411Z,100.00
2018-12-26T23:50:24.181Z,100.00
2018-12-26T23:52:52.807Z,100.00
2018-12-26T23:55:21.467Z,100.00
2018-12-26T23:57:50.339Z,100.00
